sensor_id;sensor_type;location;lat;lon;timestamp;P1;durP1;ratioP1;P2;durP2;ratioP2
11319;SDS011;5715;48.234;14.320;2023-05-14T00:00:52;3.33;;;3.00;;
11319;SDS011;5715;48.234;14.320;2023-05-14T00:03:39;4.33;;;3.80;;
11319;SDS011;5715;48.234;14.320;2023-05-14T00:06:27;10.47;;;3.33;;
11319;SDS011;5715;48.234;14.320;2023-05-14T00:09:15;5.10;;;4.07;;
11319;SDS011;5715;48.234;14.320;2023-05-14T00:12:03;4.63;;;4.10;;
11319;SDS011;5715;48.234;14.320;2023-05-14T00:14:51;3.87;;;3.57;;
11319;SDS011;5715;48.234;14.320;2023-05-14T00:17:39;3.53;;;3.23;;
11319;SDS011;5715;48.234;14.320;2023-05-14T00:20:29;3.80;;;3.50;;
11319;SDS011;5715;48.234;14.320;2023-05-14T00:23:16;4.33;;;3.97;;
11319;SDS011;5715;48.234;14.320;2023-05-14T00:26:04;4.33;;;3.93;;
11319;SDS011;5715;48.234;14.320;2023-05-14T00:28:52;3.80;;;3.07;;
11319;SDS011;5715;48.234;14.320;2023-05-14T00:31:39;7.40;;;3.53;;
11319;SDS011;5715;48.234;14.320;2023-05-14T00:34:27;5.07;;;4.67;;
11319;SDS011;5715;48.234;14.320;2023-05-14T00:37:14;5.13;;;3.40;;
11319;SDS011;5715;48.234;14.320;2023-05-14T00:40:02;4.03;;;3.63;;
11319;SDS011;5715;48.234;14.320;2023-05-14T00:42:52;3.27;;;2.90;;
11319;SDS011;5715;48.234;14.320;2023-05-14T00:45:41;5.60;;;3.33;;
11319;SDS011;5715;48.234;14.320;2023-05-14T00:48:29;3.33;;;3.03;;
11319;SDS011;5715;48.234;14.320;2023-05-14T00:51:16;3.33;;;3.13;;
11319;SDS011;5715;48.234;14.320;2023-05-14T00:54:04;3.20;;;2.90;;
11319;SDS011;5715;48.234;14.320;2023-05-14T00:56:53;3.73;;;3.43;;
11319;SDS011;5715;48.234;14.320;2023-05-14T00:59:42;2.80;;;2.60;;
11319;SDS011;5715;48.234;14.320;2023-05-14T01:02:29;4.60;;;3.33;;
11319;SDS011;5715;48.234;14.320;2023-05-14T01:05:17;3.43;;;3.07;;
11319;SDS011;5715;48.234;14.320;2023-05-14T01:08:11;5.53;;;2.83;;
11319;SDS011;5715;48.234;14.320;2023-05-14T01:12:13;4.33;;;3.00;;
11319;SDS011;5715;48.234;14.320;2023-05-14T01:14:57;4.70;;;2.43;;
11319;SDS011;5715;48.234;14.320;2023-05-14T01:18:08;7.30;;;4.00;;
11319;SDS011;5715;48.234;14.320;2023-05-14T01:20:59;4.53;;;3.90;;
11319;SDS011;5715;48.234;14.320;2023-05-14T01:23:48;7.00;;;2.53;;
11319;SDS011;5715;48.234;14.320;2023-05-14T01:26:35;3.40;;;3.10;;
11319;SDS011;5715;48.234;14.320;2023-05-14T01:29:23;6.10;;;3.40;;
11319;SDS011;5715;48.234;14.320;2023-05-14T01:32:14;3.47;;;2.83;;
11319;SDS011;5715;48.234;14.320;2023-05-14T01:35:06;4.90;;;3.20;;
11319;SDS011;5715;48.234;14.320;2023-05-14T01:37:59;4.47;;;3.63;;
11319;SDS011;5715;48.234;14.320;2023-05-14T01:40:50;3.93;;;3.40;;
11319;SDS011;5715;48.234;14.320;2023-05-14T01:43:40;5.23;;;3.63;;
11319;SDS011;5715;48.234;14.320;2023-05-14T01:46:31;4.10;;;3.70;;
11319;SDS011;5715;48.234;14.320;2023-05-14T01:49:19;4.50;;;3.63;;
11319;SDS011;5715;48.234;14.320;2023-05-14T01:52:07;5.83;;;3.57;;
11319;SDS011;5715;48.234;14.320;2023-05-14T01:54:55;5.37;;;3.67;;
11319;SDS011;5715;48.234;14.320;2023-05-14T01:57:44;6.67;;;3.87;;
11319;SDS011;5715;48.234;14.320;2023-05-14T02:00:31;3.77;;;3.07;;
11319;SDS011;5715;48.234;14.320;2023-05-14T02:03:19;4.37;;;3.97;;
11319;SDS011;5715;48.234;14.320;2023-05-14T02:06:07;4.33;;;3.53;;
11319;SDS011;5715;48.234;14.320;2023-05-14T02:08:54;3.47;;;3.00;;
11319;SDS011;5715;48.234;14.320;2023-05-14T02:11:42;3.80;;;3.17;;
11319;SDS011;5715;48.234;14.320;2023-05-14T02:14:29;5.80;;;3.93;;
11319;SDS011;5715;48.234;14.320;2023-05-14T02:17:17;4.67;;;3.30;;
11319;SDS011;5715;48.234;14.320;2023-05-14T02:20:06;7.97;;;3.17;;
11319;SDS011;5715;48.234;14.320;2023-05-14T02:22:56;5.40;;;3.67;;
11319;SDS011;5715;48.234;14.320;2023-05-14T02:25:43;5.80;;;4.20;;
11319;SDS011;5715;48.234;14.320;2023-05-14T02:28:31;5.93;;;3.60;;
11319;SDS011;5715;48.234;14.320;2023-05-14T02:31:18;4.93;;;4.07;;
11319;SDS011;5715;48.234;14.320;2023-05-14T02:34:06;4.83;;;3.43;;
11319;SDS011;5715;48.234;14.320;2023-05-14T02:36:53;3.63;;;3.03;;
11319;SDS011;5715;48.234;14.320;2023-05-14T02:39:41;6.43;;;3.87;;
11319;SDS011;5715;48.234;14.320;2023-05-14T02:42:29;3.50;;;3.20;;
11319;SDS011;5715;48.234;14.320;2023-05-14T02:45:16;4.63;;;3.17;;
11319;SDS011;5715;48.234;14.320;2023-05-14T02:48:07;4.70;;;3.40;;
11319;SDS011;5715;48.234;14.320;2023-05-14T02:50:54;3.27;;;3.00;;
11319;SDS011;5715;48.234;14.320;2023-05-14T02:53:42;3.13;;;2.83;;
11319;SDS011;5715;48.234;14.320;2023-05-14T02:56:30;3.10;;;2.67;;
11319;SDS011;5715;48.234;14.320;2023-05-14T02:59:17;3.00;;;2.80;;
11319;SDS011;5715;48.234;14.320;2023-05-14T03:02:05;5.87;;;3.50;;
11319;SDS011;5715;48.234;14.320;2023-05-14T03:04:53;5.27;;;4.20;;
11319;SDS011;5715;48.234;14.320;2023-05-14T03:07:41;2.70;;;2.43;;
11319;SDS011;5715;48.234;14.320;2023-05-14T03:10:28;3.73;;;3.43;;
11319;SDS011;5715;48.234;14.320;2023-05-14T03:13:17;3.33;;;2.77;;
11319;SDS011;5715;48.234;14.320;2023-05-14T03:16:06;4.27;;;3.03;;
11319;SDS011;5715;48.234;14.320;2023-05-14T03:18:54;3.90;;;3.50;;
11319;SDS011;5715;48.234;14.320;2023-05-14T03:21:41;5.27;;;3.47;;
11319;SDS011;5715;48.234;14.320;2023-05-14T03:24:29;3.83;;;2.77;;
11319;SDS011;5715;48.234;14.320;2023-05-14T03:27:17;3.23;;;2.80;;
11319;SDS011;5715;48.234;14.320;2023-05-14T03:30:04;4.03;;;3.10;;
11319;SDS011;5715;48.234;14.320;2023-05-14T03:32:53;3.60;;;3.17;;
11319;SDS011;5715;48.234;14.320;2023-05-14T03:35:41;5.40;;;3.73;;
11319;SDS011;5715;48.234;14.320;2023-05-14T03:38:28;3.87;;;3.40;;
11319;SDS011;5715;48.234;14.320;2023-05-14T03:41:16;3.10;;;2.87;;
11319;SDS011;5715;48.234;14.320;2023-05-14T03:44:05;4.63;;;3.93;;
11319;SDS011;5715;48.234;14.320;2023-05-14T03:46:53;4.23;;;3.47;;
11319;SDS011;5715;48.234;14.320;2023-05-14T03:49:40;6.20;;;3.37;;
11319;SDS011;5715;48.234;14.320;2023-05-14T03:52:28;7.53;;;4.10;;
11319;SDS011;5715;48.234;14.320;2023-05-14T03:55:15;6.50;;;4.17;;
11319;SDS011;5715;48.234;14.320;2023-05-14T03:58:03;4.13;;;3.60;;
11319;SDS011;5715;48.234;14.320;2023-05-14T04:00:56;6.27;;;4.67;;
11319;SDS011;5715;48.234;14.320;2023-05-14T04:03:44;5.47;;;3.10;;
11319;SDS011;5715;48.234;14.320;2023-05-14T04:06:32;6.33;;;4.47;;
11319;SDS011;5715;48.234;14.320;2023-05-14T04:09:19;5.03;;;4.60;;
11319;SDS011;5715;48.234;14.320;2023-05-14T04:12:07;4.07;;;3.67;;
11319;SDS011;5715;48.234;14.320;2023-05-14T04:14:55;3.27;;;2.93;;
11319;SDS011;5715;48.234;14.320;2023-05-14T04:17:44;4.03;;;3.20;;
11319;SDS011;5715;48.234;14.320;2023-05-14T04:20:32;4.37;;;3.97;;
11319;SDS011;5715;48.234;14.320;2023-05-14T04:23:20;3.57;;;3.27;;
11319;SDS011;5715;48.234;14.320;2023-05-14T04:26:07;3.30;;;3.00;;
11319;SDS011;5715;48.234;14.320;2023-05-14T04:28:55;2.63;;;2.43;;
11319;SDS011;5715;48.234;14.320;2023-05-14T04:31:43;4.43;;;2.47;;
11319;SDS011;5715;48.234;14.320;2023-05-14T04:34:32;4.90;;;3.27;;
11319;SDS011;5715;48.234;14.320;2023-05-14T04:37:19;4.07;;;2.83;;
11319;SDS011;5715;48.234;14.320;2023-05-14T04:40:08;3.00;;;2.80;;
11319;SDS011;5715;48.234;14.320;2023-05-14T04:42:59;4.10;;;3.20;;
11319;SDS011;5715;48.234;14.320;2023-05-14T04:45:46;3.57;;;3.27;;
11319;SDS011;5715;48.234;14.320;2023-05-14T04:48:34;3.80;;;3.40;;
11319;SDS011;5715;48.234;14.320;2023-05-14T04:51:22;5.23;;;4.03;;
11319;SDS011;5715;48.234;14.320;2023-05-14T04:54:10;4.17;;;3.77;;
11319;SDS011;5715;48.234;14.320;2023-05-14T04:56:57;6.07;;;3.23;;
11319;SDS011;5715;48.234;14.320;2023-05-14T04:59:48;6.40;;;4.23;;
11319;SDS011;5715;48.234;14.320;2023-05-14T05:02:36;5.03;;;4.00;;
11319;SDS011;5715;48.234;14.320;2023-05-14T05:05:24;7.07;;;4.20;;
11319;SDS011;5715;48.234;14.320;2023-05-14T05:08:11;4.33;;;3.93;;
11319;SDS011;5715;48.234;14.320;2023-05-14T05:10:59;3.50;;;3.20;;
11319;SDS011;5715;48.234;14.320;2023-05-14T05:13:46;3.60;;;3.30;;
11319;SDS011;5715;48.234;14.320;2023-05-14T05:16:34;4.07;;;3.43;;
11319;SDS011;5715;48.234;14.320;2023-05-14T05:19:22;5.37;;;3.20;;
11319;SDS011;5715;48.234;14.320;2023-05-14T05:22:25;4.00;;;3.63;;
11319;SDS011;5715;48.234;14.320;2023-05-14T05:25:13;5.13;;;3.70;;
11319;SDS011;5715;48.234;14.320;2023-05-14T05:28:00;5.37;;;4.40;;
11319;SDS011;5715;48.234;14.320;2023-05-14T05:30:48;5.97;;;4.97;;
11319;SDS011;5715;48.234;14.320;2023-05-14T05:33:36;5.20;;;4.73;;
11319;SDS011;5715;48.234;14.320;2023-05-14T05:36:25;10.80;;;4.27;;
11319;SDS011;5715;48.234;14.320;2023-05-14T05:39:13;4.63;;;3.73;;
11319;SDS011;5715;48.234;14.320;2023-05-14T05:42:00;6.20;;;5.00;;
11319;SDS011;5715;48.234;14.320;2023-05-14T05:44:48;10.37;;;5.07;;
11319;SDS011;5715;48.234;14.320;2023-05-14T05:47:36;5.57;;;3.93;;
11319;SDS011;5715;48.234;14.320;2023-05-14T05:50:25;5.67;;;4.30;;
11319;SDS011;5715;48.234;14.320;2023-05-14T05:53:12;6.77;;;4.30;;
11319;SDS011;5715;48.234;14.320;2023-05-14T05:56:02;4.23;;;3.83;;
11319;SDS011;5715;48.234;14.320;2023-05-14T05:58:49;7.17;;;4.60;;
11319;SDS011;5715;48.234;14.320;2023-05-14T06:01:37;7.53;;;4.67;;
11319;SDS011;5715;48.234;14.320;2023-05-14T06:04:27;5.37;;;3.90;;
11319;SDS011;5715;48.234;14.320;2023-05-14T06:07:14;4.90;;;3.80;;
11319;SDS011;5715;48.234;14.320;2023-05-14T06:10:02;4.77;;;3.83;;
11319;SDS011;5715;48.234;14.320;2023-05-14T06:12:52;4.63;;;4.17;;
11319;SDS011;5715;48.234;14.320;2023-05-14T06:15:39;8.63;;;4.37;;
11319;SDS011;5715;48.234;14.320;2023-05-14T06:18:27;7.60;;;3.80;;
11319;SDS011;5715;48.234;14.320;2023-05-14T06:21:14;6.30;;;3.77;;
11319;SDS011;5715;48.234;14.320;2023-05-14T06:24:02;9.27;;;4.10;;
11319;SDS011;5715;48.234;14.320;2023-05-14T06:26:50;6.40;;;5.03;;
11319;SDS011;5715;48.234;14.320;2023-05-14T06:29:37;9.37;;;4.47;;
11319;SDS011;5715;48.234;14.320;2023-05-14T06:32:25;5.43;;;3.50;;
11319;SDS011;5715;48.234;14.320;2023-05-14T06:35:13;4.47;;;3.90;;
11319;SDS011;5715;48.234;14.320;2023-05-14T06:38:01;5.00;;;3.73;;
11319;SDS011;5715;48.234;14.320;2023-05-14T06:40:49;12.60;;;3.97;;
11319;SDS011;5715;48.234;14.320;2023-05-14T06:43:37;3.27;;;2.93;;
11319;SDS011;5715;48.234;14.320;2023-05-14T06:46:24;19.00;;;4.07;;
11319;SDS011;5715;48.234;14.320;2023-05-14T06:49:12;7.23;;;4.33;;
11319;SDS011;5715;48.234;14.320;2023-05-14T06:52:00;5.40;;;3.90;;
11319;SDS011;5715;48.234;14.320;2023-05-14T06:54:47;3.97;;;3.53;;
11319;SDS011;5715;48.234;14.320;2023-05-14T06:57:35;6.22;;;4.07;;
11319;SDS011;5715;48.234;14.320;2023-05-14T07:00:26;7.60;;;4.40;;
11319;SDS011;5715;48.234;14.320;2023-05-14T07:03:14;8.10;;;4.43;;
11319;SDS011;5715;48.234;14.320;2023-05-14T07:06:01;4.00;;;3.50;;
11319;SDS011;5715;48.234;14.320;2023-05-14T07:08:49;3.60;;;3.30;;
11319;SDS011;5715;48.234;14.320;2023-05-14T07:11:37;5.00;;;4.50;;
11319;SDS011;5715;48.234;14.320;2023-05-14T07:14:24;4.28;;;3.45;;
11319;SDS011;5715;48.234;14.320;2023-05-14T07:17:12;4.07;;;3.42;;
11319;SDS011;5715;48.234;14.320;2023-05-14T07:19:59;3.70;;;3.05;;
11319;SDS011;5715;48.234;14.320;2023-05-14T07:22:47;4.47;;;3.05;;
11319;SDS011;5715;48.234;14.320;2023-05-14T07:25:35;5.88;;;3.97;;
11319;SDS011;5715;48.234;14.320;2023-05-14T07:28:23;4.53;;;3.78;;
11319;SDS011;5715;48.234;14.320;2023-05-14T07:31:10;7.65;;;3.83;;
11319;SDS011;5715;48.234;14.320;2023-05-14T07:33:58;5.70;;;4.38;;
11319;SDS011;5715;48.234;14.320;2023-05-14T07:36:46;4.63;;;3.80;;
11319;SDS011;5715;48.234;14.320;2023-05-14T07:39:33;4.50;;;4.03;;
11319;SDS011;5715;48.234;14.320;2023-05-14T07:42:21;5.22;;;3.70;;
11319;SDS011;5715;48.234;14.320;2023-05-14T07:45:21;5.75;;;4.32;;
11319;SDS011;5715;48.234;14.320;2023-05-14T07:48:09;5.63;;;4.30;;
11319;SDS011;5715;48.234;14.320;2023-05-14T07:50:57;4.20;;;3.78;;
11319;SDS011;5715;48.234;14.320;2023-05-14T07:53:45;5.95;;;3.92;;
11319;SDS011;5715;48.234;14.320;2023-05-14T07:56:33;6.55;;;3.72;;
11319;SDS011;5715;48.234;14.320;2023-05-14T07:59:20;4.30;;;3.85;;
11319;SDS011;5715;48.234;14.320;2023-05-14T08:02:08;10.45;;;3.63;;
11319;SDS011;5715;48.234;14.320;2023-05-14T08:04:58;6.87;;;4.33;;
11319;SDS011;5715;48.234;14.320;2023-05-14T08:07:45;4.83;;;4.40;;
11319;SDS011;5715;48.234;14.320;2023-05-14T08:10:33;7.00;;;4.15;;
11319;SDS011;5715;48.234;14.320;2023-05-14T08:13:21;16.95;;;4.30;;
11319;SDS011;5715;48.234;14.320;2023-05-14T08:16:09;5.00;;;3.88;;
11319;SDS011;5715;48.234;14.320;2023-05-14T08:18:57;4.53;;;3.92;;
11319;SDS011;5715;48.234;14.320;2023-05-14T08:21:44;5.85;;;4.13;;
11319;SDS011;5715;48.234;14.320;2023-05-14T08:24:32;5.38;;;3.80;;
11319;SDS011;5715;48.234;14.320;2023-05-14T08:27:19;5.45;;;4.18;;
11319;SDS011;5715;48.234;14.320;2023-05-14T08:30:08;4.60;;;4.05;;
11319;SDS011;5715;48.234;14.320;2023-05-14T08:32:57;3.60;;;3.30;;
11319;SDS011;5715;48.234;14.320;2023-05-14T08:35:45;4.53;;;3.83;;
11319;SDS011;5715;48.234;14.320;2023-05-14T08:38:32;6.05;;;4.95;;
11319;SDS011;5715;48.234;14.320;2023-05-14T08:41:20;4.78;;;4.28;;
11319;SDS011;5715;48.234;14.320;2023-05-14T08:44:17;3.45;;;3.15;;
11319;SDS011;5715;48.234;14.320;2023-05-14T08:47:11;3.90;;;3.13;;
11319;SDS011;5715;48.234;14.320;2023-05-14T08:50:04;5.43;;;4.10;;
11319;SDS011;5715;48.234;14.320;2023-05-14T08:52:53;7.95;;;4.10;;
11319;SDS011;5715;48.234;14.320;2023-05-14T08:55:41;6.10;;;3.58;;
11319;SDS011;5715;48.234;14.320;2023-05-14T08:58:31;7.93;;;3.73;;
11319;SDS011;5715;48.234;14.320;2023-05-14T09:01:19;6.40;;;3.97;;
11319;SDS011;5715;48.234;14.320;2023-05-14T09:04:07;4.93;;;3.35;;
11319;SDS011;5715;48.234;14.320;2023-05-14T09:06:57;4.63;;;3.40;;
11319;SDS011;5715;48.234;14.320;2023-05-14T09:09:47;3.42;;;3.10;;
11319;SDS011;5715;48.234;14.320;2023-05-14T09:12:36;4.65;;;3.70;;
11319;SDS011;5715;48.234;14.320;2023-05-14T09:15:24;4.43;;;3.47;;
11319;SDS011;5715;48.234;14.320;2023-05-14T09:18:15;3.22;;;2.83;;
11319;SDS011;5715;48.234;14.320;2023-05-14T09:21:03;4.53;;;4.10;;
11319;SDS011;5715;48.234;14.320;2023-05-14T09:23:52;6.15;;;4.13;;
11319;SDS011;5715;48.234;14.320;2023-05-14T09:26:43;3.58;;;3.28;;
11319;SDS011;5715;48.234;14.320;2023-05-14T09:29:35;3.67;;;3.38;;
11319;SDS011;5715;48.234;14.320;2023-05-14T09:32:22;3.50;;;3.20;;
11319;SDS011;5715;48.234;14.320;2023-05-14T09:35:11;3.67;;;3.38;;
11319;SDS011;5715;48.234;14.320;2023-05-14T09:38:06;4.20;;;3.50;;
11319;SDS011;5715;48.234;14.320;2023-05-14T09:40:54;4.45;;;4.03;;
11319;SDS011;5715;48.234;14.320;2023-05-14T09:43:42;3.90;;;3.50;;
11319;SDS011;5715;48.234;14.320;2023-05-14T09:46:29;9.75;;;4.10;;
11319;SDS011;5715;48.234;14.320;2023-05-14T09:49:17;4.68;;;4.22;;
11319;SDS011;5715;48.234;14.320;2023-05-14T09:52:06;4.68;;;3.42;;
11319;SDS011;5715;48.234;14.320;2023-05-14T09:54:54;3.50;;;2.78;;
11319;SDS011;5715;48.234;14.320;2023-05-14T09:57:41;2.97;;;2.78;;
11319;SDS011;5715;48.234;14.320;2023-05-14T10:00:32;3.20;;;2.92;;
11319;SDS011;5715;48.234;14.320;2023-05-14T10:03:20;4.07;;;3.15;;
11319;SDS011;5715;48.234;14.320;2023-05-14T10:06:12;4.03;;;3.33;;
11319;SDS011;5715;48.234;14.320;2023-05-14T10:09:03;3.38;;;2.83;;
11319;SDS011;5715;48.234;14.320;2023-05-14T10:11:57;4.00;;;2.95;;
11319;SDS011;5715;48.234;14.320;2023-05-14T10:14:49;4.53;;;3.83;;
11319;SDS011;5715;48.234;14.320;2023-05-14T10:17:39;3.15;;;2.50;;
11319;SDS011;5715;48.234;14.320;2023-05-14T10:20:33;5.20;;;3.60;;
11319;SDS011;5715;48.234;14.320;2023-05-14T10:23:23;3.33;;;2.77;;
11319;SDS011;5715;48.234;14.320;2023-05-14T10:26:11;3.70;;;3.23;;
11319;SDS011;5715;48.234;14.320;2023-05-14T10:28:58;3.97;;;3.58;;
11319;SDS011;5715;48.234;14.320;2023-05-14T10:34:37;3.07;;;2.77;;
11319;SDS011;5715;48.234;14.320;2023-05-14T10:37:30;3.90;;;3.00;;
11319;SDS011;5715;48.234;14.320;2023-05-14T10:40:18;3.20;;;2.75;;
11319;SDS011;5715;48.234;14.320;2023-05-14T10:43:10;4.60;;;3.25;;
11319;SDS011;5715;48.234;14.320;2023-05-14T10:46:00;4.93;;;2.80;;
11319;SDS011;5715;48.234;14.320;2023-05-14T10:48:48;3.65;;;2.90;;
11319;SDS011;5715;48.234;14.320;2023-05-14T10:51:36;4.90;;;3.73;;
11319;SDS011;5715;48.234;14.320;2023-05-14T10:54:26;3.80;;;3.03;;
11319;SDS011;5715;48.234;14.320;2023-05-14T10:57:14;3.57;;;3.27;;
11319;SDS011;5715;48.234;14.320;2023-05-14T11:00:05;3.03;;;2.42;;
11319;SDS011;5715;48.234;14.320;2023-05-14T11:02:55;3.43;;;2.77;;
11319;SDS011;5715;48.234;14.320;2023-05-14T11:05:43;3.10;;;2.80;;
11319;SDS011;5715;48.234;14.320;2023-05-14T11:08:32;3.77;;;2.77;;
11319;SDS011;5715;48.234;14.320;2023-05-14T11:11:20;2.90;;;2.60;;
11319;SDS011;5715;48.234;14.320;2023-05-14T11:14:10;3.20;;;2.90;;
11319;SDS011;5715;48.234;14.320;2023-05-14T11:16:58;5.20;;;3.23;;
11319;SDS011;5715;48.234;14.320;2023-05-14T11:19:46;4.27;;;2.90;;
11319;SDS011;5715;48.234;14.320;2023-05-14T11:22:37;5.50;;;2.33;;
11319;SDS011;5715;48.234;14.320;2023-05-14T11:25:27;2.37;;;2.17;;
11319;SDS011;5715;48.234;14.320;2023-05-14T11:28:15;2.33;;;2.13;;
11319;SDS011;5715;48.234;14.320;2023-05-14T11:31:03;2.27;;;2.07;;
11319;SDS011;5715;48.234;14.320;2023-05-14T11:33:51;2.47;;;1.83;;
11319;SDS011;5715;48.234;14.320;2023-05-14T11:36:39;2.87;;;2.60;;
11319;SDS011;5715;48.234;14.320;2023-05-14T11:39:27;3.87;;;2.47;;
11319;SDS011;5715;48.234;14.320;2023-05-14T11:42:17;2.53;;;2.23;;
11319;SDS011;5715;48.234;14.320;2023-05-14T11:45:09;3.70;;;2.40;;
11319;SDS011;5715;48.234;14.320;2023-05-14T11:47:58;2.30;;;2.10;;
11319;SDS011;5715;48.234;14.320;2023-05-14T11:50:49;3.20;;;2.07;;
11319;SDS011;5715;48.234;14.320;2023-05-14T11:53:38;1.73;;;1.63;;
11319;SDS011;5715;48.234;14.320;2023-05-14T11:56:26;3.83;;;2.33;;
11319;SDS011;5715;48.234;14.320;2023-05-14T11:59:13;1.87;;;1.77;;
11319;SDS011;5715;48.234;14.320;2023-05-14T12:02:07;4.43;;;2.43;;
11319;SDS011;5715;48.234;14.320;2023-05-14T12:05:00;2.47;;;2.27;;
11319;SDS011;5715;48.234;14.320;2023-05-14T12:07:48;2.83;;;2.17;;
11319;SDS011;5715;48.234;14.320;2023-05-14T12:10:41;2.03;;;1.93;;
11319;SDS011;5715;48.234;14.320;2023-05-14T12:13:29;3.90;;;2.00;;
11319;SDS011;5715;48.234;14.320;2023-05-14T12:16:19;2.20;;;2.00;;
11319;SDS011;5715;48.234;14.320;2023-05-14T12:19:07;5.23;;;2.33;;
11319;SDS011;5715;48.234;14.320;2023-05-14T12:21:59;2.77;;;2.03;;
11319;SDS011;5715;48.234;14.320;2023-05-14T12:24:54;1.83;;;1.73;;
11319;SDS011;5715;48.234;14.320;2023-05-14T12:27:44;1.70;;;1.60;;
11319;SDS011;5715;48.234;14.320;2023-05-14T12:30:36;1.43;;;1.33;;
11319;SDS011;5715;48.234;14.320;2023-05-14T12:33:27;2.70;;;1.80;;
11319;SDS011;5715;48.234;14.320;2023-05-14T12:36:14;2.10;;;1.90;;
11319;SDS011;5715;48.234;14.320;2023-05-14T12:39:08;1.83;;;1.70;;
11319;SDS011;5715;48.234;14.320;2023-05-14T12:41:57;1.50;;;1.23;;
11319;SDS011;5715;48.234;14.320;2023-05-14T12:44:45;1.20;;;1.10;;
11319;SDS011;5715;48.234;14.320;2023-05-14T12:47:32;1.53;;;1.43;;
11319;SDS011;5715;48.234;14.320;2023-05-14T12:50:21;0.93;;;0.93;;
11319;SDS011;5715;48.234;14.320;2023-05-14T12:53:09;1.23;;;1.13;;
11319;SDS011;5715;48.234;14.320;2023-05-14T12:55:57;1.57;;;1.47;;
11319;SDS011;5715;48.234;14.320;2023-05-14T12:58:45;1.57;;;1.47;;
11319;SDS011;5715;48.234;14.320;2023-05-14T13:01:33;1.10;;;1.10;;
11319;SDS011;5715;48.234;14.320;2023-05-14T13:04:21;1.40;;;1.30;;
11319;SDS011;5715;48.234;14.320;2023-05-14T13:07:09;1.93;;;1.80;;
11319;SDS011;5715;48.234;14.320;2023-05-14T13:09:57;2.77;;;1.50;;
11319;SDS011;5715;48.234;14.320;2023-05-14T13:12:44;3.17;;;1.10;;
11319;SDS011;5715;48.234;14.320;2023-05-14T13:15:32;0.93;;;0.93;;
11319;SDS011;5715;48.234;14.320;2023-05-14T13:18:21;0.90;;;0.90;;
11319;SDS011;5715;48.234;14.320;2023-05-14T13:21:09;1.03;;;1.03;;
11319;SDS011;5715;48.234;14.320;2023-05-14T13:23:58;1.07;;;1.00;;
11319;SDS011;5715;48.234;14.320;2023-05-14T13:26:45;4.07;;;1.77;;
11319;SDS011;5715;48.234;14.320;2023-05-14T13:29:33;1.10;;;1.00;;
11319;SDS011;5715;48.234;14.320;2023-05-14T13:32:21;1.80;;;1.70;;
11319;SDS011;5715;48.234;14.320;2023-05-14T13:35:08;1.30;;;1.20;;
11319;SDS011;5715;48.234;14.320;2023-05-14T13:37:57;1.73;;;1.20;;
11319;SDS011;5715;48.234;14.320;2023-05-14T13:40:44;1.07;;;1.07;;
11319;SDS011;5715;48.234;14.320;2023-05-14T13:43:32;1.17;;;1.07;;
11319;SDS011;5715;48.234;14.320;2023-05-14T13:46:21;1.57;;;1.47;;
11319;SDS011;5715;48.234;14.320;2023-05-14T13:49:09;1.27;;;1.17;;
11319;SDS011;5715;48.234;14.320;2023-05-14T13:51:57;1.33;;;1.23;;
11319;SDS011;5715;48.234;14.320;2023-05-14T13:54:45;1.10;;;1.00;;
11319;SDS011;5715;48.234;14.320;2023-05-14T13:57:32;1.37;;;1.30;;
11319;SDS011;5715;48.234;14.320;2023-05-14T14:00:20;2.93;;;1.20;;
11319;SDS011;5715;48.234;14.320;2023-05-14T14:03:08;0.97;;;0.93;;
11319;SDS011;5715;48.234;14.320;2023-05-14T14:05:56;1.20;;;1.00;;
11319;SDS011;5715;48.234;14.320;2023-05-14T14:08:44;1.00;;;0.93;;
11319;SDS011;5715;48.234;14.320;2023-05-14T14:11:31;4.80;;;1.20;;
11319;SDS011;5715;48.234;14.320;2023-05-14T14:14:19;1.27;;;1.17;;
11319;SDS011;5715;48.234;14.320;2023-05-14T14:17:07;0.93;;;0.93;;
11319;SDS011;5715;48.234;14.320;2023-05-14T14:19:54;0.87;;;0.87;;
11319;SDS011;5715;48.234;14.320;2023-05-14T14:22:42;0.80;;;0.80;;
11319;SDS011;5715;48.234;14.320;2023-05-14T14:25:30;1.13;;;1.13;;
11319;SDS011;5715;48.234;14.320;2023-05-14T14:28:18;0.90;;;0.90;;
11319;SDS011;5715;48.234;14.320;2023-05-14T14:31:05;0.77;;;0.77;;
11319;SDS011;5715;48.234;14.320;2023-05-14T14:33:53;1.63;;;1.20;;
11319;SDS011;5715;48.234;14.320;2023-05-14T14:36:41;0.97;;;0.97;;
11319;SDS011;5715;48.234;14.320;2023-05-14T14:39:28;1.20;;;1.10;;
11319;SDS011;5715;48.234;14.320;2023-05-14T14:42:16;1.00;;;1.00;;
11319;SDS011;5715;48.234;14.320;2023-05-14T14:45:04;0.87;;;0.87;;
11319;SDS011;5715;48.234;14.320;2023-05-14T14:48:18;1.20;;;1.10;;
11319;SDS011;5715;48.234;14.320;2023-05-14T14:51:26;3.00;;;1.73;;
11319;SDS011;5715;48.234;14.320;2023-05-14T14:54:15;1.57;;;1.20;;
11319;SDS011;5715;48.234;14.320;2023-05-14T14:57:03;0.93;;;0.93;;
11319;SDS011;5715;48.234;14.320;2023-05-14T14:59:51;0.90;;;0.90;;
11319;SDS011;5715;48.234;14.320;2023-05-14T15:02:39;0.90;;;0.90;;
11319;SDS011;5715;48.234;14.320;2023-05-14T15:05:28;1.00;;;1.00;;
11319;SDS011;5715;48.234;14.320;2023-05-14T15:08:16;1.20;;;0.87;;
11319;SDS011;5715;48.234;14.320;2023-05-14T15:11:04;1.13;;;1.10;;
11319;SDS011;5715;48.234;14.320;2023-05-14T15:13:53;1.63;;;1.10;;
11319;SDS011;5715;48.234;14.320;2023-05-14T15:16:40;2.70;;;1.50;;
11319;SDS011;5715;48.234;14.320;2023-05-14T15:19:28;1.63;;;1.00;;
11319;SDS011;5715;48.234;14.320;2023-05-14T15:22:17;1.50;;;1.27;;
11319;SDS011;5715;48.234;14.320;2023-05-14T15:25:05;1.10;;;1.07;;
11319;SDS011;5715;48.234;14.320;2023-05-14T15:27:53;2.00;;;1.43;;
11319;SDS011;5715;48.234;14.320;2023-05-14T15:30:41;1.10;;;1.10;;
11319;SDS011;5715;48.234;14.320;2023-05-14T15:33:28;1.83;;;1.50;;
11319;SDS011;5715;48.234;14.320;2023-05-14T15:36:16;0.93;;;0.93;;
11319;SDS011;5715;48.234;14.320;2023-05-14T15:39:03;1.40;;;1.30;;
11319;SDS011;5715;48.234;14.320;2023-05-14T15:41:51;0.90;;;0.90;;
11319;SDS011;5715;48.234;14.320;2023-05-14T15:44:39;1.50;;;1.40;;
11319;SDS011;5715;48.234;14.320;2023-05-14T15:47:26;1.20;;;1.10;;
11319;SDS011;5715;48.234;14.320;2023-05-14T15:50:14;0.83;;;0.83;;
11319;SDS011;5715;48.234;14.320;2023-05-14T15:53:01;1.47;;;1.10;;
11319;SDS011;5715;48.234;14.320;2023-05-14T15:55:49;0.97;;;0.97;;
11319;SDS011;5715;48.234;14.320;2023-05-14T15:58:37;1.00;;;1.00;;
11319;SDS011;5715;48.234;14.320;2023-05-14T16:01:24;0.77;;;0.77;;
11319;SDS011;5715;48.234;14.320;2023-05-14T16:04:12;0.90;;;0.90;;
11319;SDS011;5715;48.234;14.320;2023-05-14T16:07:03;0.90;;;0.90;;
11319;SDS011;5715;48.234;14.320;2023-05-14T16:09:55;0.80;;;0.80;;
11319;SDS011;5715;48.234;14.320;2023-05-14T16:12:43;0.67;;;0.67;;
11319;SDS011;5715;48.234;14.320;2023-05-14T16:15:30;1.57;;;1.20;;
11319;SDS011;5715;48.234;14.320;2023-05-14T16:18:18;1.10;;;1.07;;
11319;SDS011;5715;48.234;14.320;2023-05-14T16:21:05;0.80;;;0.80;;
11319;SDS011;5715;48.234;14.320;2023-05-14T16:23:53;0.90;;;0.90;;
11319;SDS011;5715;48.234;14.320;2023-05-14T16:26:40;0.90;;;0.90;;
11319;SDS011;5715;48.234;14.320;2023-05-14T16:29:28;0.90;;;0.90;;
11319;SDS011;5715;48.234;14.320;2023-05-14T16:32:16;1.23;;;1.00;;
11319;SDS011;5715;48.234;14.320;2023-05-14T16:35:03;0.60;;;0.60;;
11319;SDS011;5715;48.234;14.320;2023-05-14T16:37:51;0.70;;;0.70;;
11319;SDS011;5715;48.234;14.320;2023-05-14T16:40:40;0.80;;;0.80;;
11319;SDS011;5715;48.234;14.320;2023-05-14T16:43:27;0.80;;;0.80;;
11319;SDS011;5715;48.234;14.320;2023-05-14T16:46:15;0.80;;;0.80;;
11319;SDS011;5715;48.234;14.320;2023-05-14T16:49:03;0.87;;;0.87;;
11319;SDS011;5715;48.234;14.320;2023-05-14T16:51:50;0.97;;;0.97;;
11319;SDS011;5715;48.234;14.320;2023-05-14T16:54:38;1.10;;;1.00;;
11319;SDS011;5715;48.234;14.320;2023-05-14T16:57:25;1.07;;;1.07;;
11319;SDS011;5715;48.234;14.320;2023-05-14T17:00:13;1.63;;;1.30;;